sensor_id;sensor_type;location;lat;lon;timestamp;temperature;humidity
77582;DHT22;66726;52.388;9.986;2023-08-06T00:01:19;16.50;99.90
77582;DHT22;66726;52.388;9.986;2023-08-06T00:03:51;16.50;99.90
77582;DHT22;66726;52.388;9.986;2023-08-06T00:06:24;16.50;99.90
77582;DHT22;66726;52.388;9.986;2023-08-06T00:08:57;16.50;99.90
77582;DHT22;66726;52.388;9.986;2023-08-06T00:11:29;16.40;99.90
77582;DHT22;66726;52.388;9.986;2023-08-06T00:14:01;16.40;99.90
77582;DHT22;66726;52.388;9.986;2023-08-06T00:16:33;16.40;99.90
77582;DHT22;66726;52.388;9.986;2023-08-06T00:19:05;16.40;99.90
77582;DHT22;66726;52.388;9.986;2023-08-06T00:21:37;16.50;99.90
77582;DHT22;66726;52.388;9.986;2023-08-06T00:24:10;16.40;99.90
77582;DHT22;66726;52.388;9.986;2023-08-06T00:26:42;16.40;99.90
77582;DHT22;66726;52.388;9.986;2023-08-06T00:29:14;16.40;99.90
77582;DHT22;66726;52.388;9.986;2023-08-06T00:31:46;16.40;99.90
77582;DHT22;66726;52.388;9.986;2023-08-06T00:34:18;16.30;99.90
77582;DHT22;66726;52.388;9.986;2023-08-06T00:36:50;16.40;99.90
77582;DHT22;66726;52.388;9.986;2023-08-06T00:39:24;16.40;99.90
77582;DHT22;66726;52.388;9.986;2023-08-06T00:41:56;16.50;99.90
77582;DHT22;66726;52.388;9.986;2023-08-06T00:44:28;16.50;99.90
77582;DHT22;66726;52.388;9.986;2023-08-06T00:46:59;16.50;99.90
77582;DHT22;66726;52.388;9.986;2023-08-06T00:49:32;16.50;99.90
77582;DHT22;66726;52.388;9.986;2023-08-06T00:52:06;16.40;99.90
77582;DHT22;66726;52.388;9.986;2023-08-06T00:54:42;16.30;99.90
77582;DHT22;66726;52.388;9.986;2023-08-06T00:57:14;16.30;99.90
77582;DHT22;66726;52.388;9.986;2023-08-06T00:59:47;16.30;99.90
77582;DHT22;66726;52.388;9.986;2023-08-06T01:02:19;16.30;99.90
77582;DHT22;66726;52.388;9.986;2023-08-06T01:04:51;16.20;99.90
77582;DHT22;66726;52.388;9.986;2023-08-06T01:07:33;16.30;99.90
77582;DHT22;66726;52.388;9.986;2023-08-06T01:10:23;16.40;99.90
77582;DHT22;66726;52.388;9.986;2023-08-06T01:13:07;16.40;99.90
77582;DHT22;66726;52.388;9.986;2023-08-06T01:15:49;16.30;99.90
77582;DHT22;66726;52.388;9.986;2023-08-06T01:18:25;16.30;99.90
77582;DHT22;66726;52.388;9.986;2023-08-06T01:21:00;16.30;99.90
77582;DHT22;66726;52.388;9.986;2023-08-06T01:23:32;16.30;99.90
77582;DHT22;66726;52.388;9.986;2023-08-06T01:26:15;16.20;99.90
77582;DHT22;66726;52.388;9.986;2023-08-06T01:28:58;16.20;99.90
77582;DHT22;66726;52.388;9.986;2023-08-06T01:31:37;16.20;99.90
77582;DHT22;66726;52.388;9.986;2023-08-06T01:34:17;16.20;99.90
77582;DHT22;66726;52.388;9.986;2023-08-06T01:36:52;16.20;99.90
77582;DHT22;66726;52.388;9.986;2023-08-06T01:39:23;16.20;99.90
77582;DHT22;66726;52.388;9.986;2023-08-06T01:41:55;16.20;99.90
77582;DHT22;66726;52.388;9.986;2023-08-06T01:44:27;16.20;99.90
77582;DHT22;66726;52.388;9.986;2023-08-06T01:46:59;16.10;99.90
77582;DHT22;66726;52.388;9.986;2023-08-06T01:49:32;16.10;99.90
77582;DHT22;66726;52.388;9.986;2023-08-06T01:52:06;16.10;99.90
77582;DHT22;66726;52.388;9.986;2023-08-06T01:54:38;16.00;99.90
77582;DHT22;66726;52.388;9.986;2023-08-06T01:57:10;16.10;99.90
77582;DHT22;66726;52.388;9.986;2023-08-06T01:59:42;16.10;99.90
77582;DHT22;66726;52.388;9.986;2023-08-06T02:02:14;16.10;99.90
77582;DHT22;66726;52.388;9.986;2023-08-06T02:04:46;16.10;99.90
77582;DHT22;66726;52.388;9.986;2023-08-06T02:07:19;16.10;99.90
77582;DHT22;66726;52.388;9.986;2023-08-06T02:09:51;16.10;99.90
77582;DHT22;66726;52.388;9.986;2023-08-06T02:12:23;16.10;99.90
77582;DHT22;66726;52.388;9.986;2023-08-06T02:14:55;16.10;99.90
77582;DHT22;66726;52.388;9.986;2023-08-06T02:17:27;16.10;99.90
77582;DHT22;66726;52.388;9.986;2023-08-06T02:19:59;15.90;99.90
77582;DHT22;66726;52.388;9.986;2023-08-06T02:22:32;15.90;99.90
77582;DHT22;66726;52.388;9.986;2023-08-06T02:25:04;15.90;99.90
77582;DHT22;66726;52.388;9.986;2023-08-06T02:27:37;15.90;99.90
77582;DHT22;66726;52.388;9.986;2023-08-06T02:30:08;16.00;99.90
77582;DHT22;66726;52.388;9.986;2023-08-06T02:32:40;16.00;99.90
77582;DHT22;66726;52.388;9.986;2023-08-06T02:35:12;15.90;99.90
77582;DHT22;66726;52.388;9.986;2023-08-06T02:37:46;15.90;99.90
77582;DHT22;66726;52.388;9.986;2023-08-06T02:40:18;15.90;99.90
77582;DHT22;66726;52.388;9.986;2023-08-06T02:42:49;15.90;99.90
77582;DHT22;66726;52.388;9.986;2023-08-06T02:45:21;15.80;99.90
77582;DHT22;66726;52.388;9.986;2023-08-06T02:47:53;15.80;99.90
77582;DHT22;66726;52.388;9.986;2023-08-06T02:50:25;15.70;99.90
77582;DHT22;66726;52.388;9.986;2023-08-06T02:52:58;15.70;99.90
77582;DHT22;66726;52.388;9.986;2023-08-06T02:55:30;15.60;99.90
77582;DHT22;66726;52.388;9.986;2023-08-06T02:58:02;15.80;99.90
77582;DHT22;66726;52.388;9.986;2023-08-06T03:00:34;15.70;99.90
77582;DHT22;66726;52.388;9.986;2023-08-06T03:03:06;15.60;99.90
77582;DHT22;66726;52.388;9.986;2023-08-06T03:05:38;15.60;99.90
77582;DHT22;66726;52.388;9.986;2023-08-06T03:08:11;15.60;99.90
77582;DHT22;66726;52.388;9.986;2023-08-06T03:10:43;15.60;99.90
77582;DHT22;66726;52.388;9.986;2023-08-06T03:13:15;15.60;99.90
77582;DHT22;66726;52.388;9.986;2023-08-06T03:15:54;15.60;99.90
77582;DHT22;66726;52.388;9.986;2023-08-06T03:18:26;15.50;99.90
77582;DHT22;66726;52.388;9.986;2023-08-06T03:20:58;15.50;99.90
77582;DHT22;66726;52.388;9.986;2023-08-06T03:23:31;15.50;99.90
77582;DHT22;66726;52.388;9.986;2023-08-06T03:26:03;15.50;99.90
77582;DHT22;66726;52.388;9.986;2023-08-06T03:28:35;15.50;99.90
77582;DHT22;66726;52.388;9.986;2023-08-06T03:31:07;15.50;99.90
77582;DHT22;66726;52.388;9.986;2023-08-06T03:33:39;15.50;99.90
77582;DHT22;66726;52.388;9.986;2023-08-06T03:36:11;15.50;99.90
77582;DHT22;66726;52.388;9.986;2023-08-06T03:38:44;15.40;99.90
77582;DHT22;66726;52.388;9.986;2023-08-06T03:41:16;15.40;99.90
77582;DHT22;66726;52.388;9.986;2023-08-06T03:43:48;15.40;99.90
77582;DHT22;66726;52.388;9.986;2023-08-06T03:46:20;15.40;99.90
77582;DHT22;66726;52.388;9.986;2023-08-06T03:48:52;15.40;99.90
77582;DHT22;66726;52.388;9.986;2023-08-06T03:51:25;15.40;99.90
77582;DHT22;66726;52.388;9.986;2023-08-06T03:53:58;15.50;99.90
77582;DHT22;66726;52.388;9.986;2023-08-06T03:56:30;15.50;99.90
77582;DHT22;66726;52.388;9.986;2023-08-06T03:59:02;15.50;99.90
77582;DHT22;66726;52.388;9.986;2023-08-06T04:01:34;15.40;99.90
77582;DHT22;66726;52.388;9.986;2023-08-06T04:04:05;15.40;99.90
77582;DHT22;66726;52.388;9.986;2023-08-06T04:06:37;15.40;99.90
77582;DHT22;66726;52.388;9.986;2023-08-06T04:09:11;15.40;99.90
77582;DHT22;66726;52.388;9.986;2023-08-06T04:11:43;15.40;99.90
77582;DHT22;66726;52.388;9.986;2023-08-06T04:14:15;15.40;99.90
77582;DHT22;66726;52.388;9.986;2023-08-06T04:16:46;15.40;99.90
77582;DHT22;66726;52.388;9.986;2023-08-06T04:19:18;15.40;99.90
77582;DHT22;66726;52.388;9.986;2023-08-06T04:21:50;15.40;99.90
77582;DHT22;66726;52.388;9.986;2023-08-06T04:24:24;15.40;99.90
77582;DHT22;66726;52.388;9.986;2023-08-06T04:26:56;15.40;99.90
77582;DHT22;66726;52.388;9.986;2023-08-06T04:29:28;15.40;99.90
77582;DHT22;66726;52.388;9.986;2023-08-06T04:31:59;15.40;99.90
77582;DHT22;66726;52.388;9.986;2023-08-06T04:34:34;15.40;99.90
77582;DHT22;66726;52.388;9.986;2023-08-06T04:37:06;15.40;99.90
77582;DHT22;66726;52.388;9.986;2023-08-06T04:39:40;15.40;99.90
77582;DHT22;66726;52.388;9.986;2023-08-06T04:42:11;15.40;99.90
77582;DHT22;66726;52.388;9.986;2023-08-06T04:44:43;15.40;99.90
77582;DHT22;66726;52.388;9.986;2023-08-06T04:47:15;15.40;99.90
77582;DHT22;66726;52.388;9.986;2023-08-06T04:49:47;15.40;99.90
77582;DHT22;66726;52.388;9.986;2023-08-06T04:52:19;15.40;99.90
77582;DHT22;66726;52.388;9.986;2023-08-06T04:54:52;15.40;99.90
77582;DHT22;66726;52.388;9.986;2023-08-06T04:57:25;15.40;99.90
77582;DHT22;66726;52.388;9.986;2023-08-06T04:59:57;15.40;99.90
77582;DHT22;66726;52.388;9.986;2023-08-06T05:02:29;15.40;99.90
77582;DHT22;66726;52.388;9.986;2023-08-06T05:05:03;15.40;99.90
77582;DHT22;66726;52.388;9.986;2023-08-06T05:07:35;15.40;99.90
77582;DHT22;66726;52.388;9.986;2023-08-06T05:10:09;15.40;99.90
77582;DHT22;66726;52.388;9.986;2023-08-06T05:12:41;15.40;99.90
77582;DHT22;66726;52.388;9.986;2023-08-06T05:15:13;15.40;99.90
77582;DHT22;66726;52.388;9.986;2023-08-06T05:17:45;15.40;99.90
77582;DHT22;66726;52.388;9.986;2023-08-06T05:20:17;15.40;99.90
77582;DHT22;66726;52.388;9.986;2023-08-06T05:22:50;15.30;99.90
77582;DHT22;66726;52.388;9.986;2023-08-06T05:25:23;15.40;99.90
77582;DHT22;66726;52.388;9.986;2023-08-06T05:27:55;15.40;99.90
77582;DHT22;66726;52.388;9.986;2023-08-06T05:30:27;15.40;99.90
77582;DHT22;66726;52.388;9.986;2023-08-06T05:33:00;15.40;99.90
77582;DHT22;66726;52.388;9.986;2023-08-06T05:35:31;15.30;99.90
77582;DHT22;66726;52.388;9.986;2023-08-06T05:38:03;15.40;99.90
77582;DHT22;66726;52.388;9.986;2023-08-06T05:40:36;15.40;99.90
77582;DHT22;66726;52.388;9.986;2023-08-06T05:43:08;15.30;99.90
77582;DHT22;66726;52.388;9.986;2023-08-06T05:45:40;15.30;99.90
77582;DHT22;66726;52.388;9.986;2023-08-06T05:48:16;15.30;99.90
77582;DHT22;66726;52.388;9.986;2023-08-06T05:50:47;15.40;99.90
77582;DHT22;66726;52.388;9.986;2023-08-06T05:53:19;15.40;99.90
77582;DHT22;66726;52.388;9.986;2023-08-06T05:55:52;15.40;99.90
77582;DHT22;66726;52.388;9.986;2023-08-06T05:58:24;15.40;99.90
77582;DHT22;66726;52.388;9.986;2023-08-06T06:00:57;15.40;99.90
77582;DHT22;66726;52.388;9.986;2023-08-06T06:03:29;15.40;99.90
77582;DHT22;66726;52.388;9.986;2023-08-06T06:06:02;15.50;99.90
77582;DHT22;66726;52.388;9.986;2023-08-06T06:08:36;15.50;99.90
77582;DHT22;66726;52.388;9.986;2023-08-06T06:11:09;15.50;99.90
77582;DHT22;66726;52.388;9.986;2023-08-06T06:13:41;15.50;99.90
77582;DHT22;66726;52.388;9.986;2023-08-06T06:16:12;15.50;99.90
77582;DHT22;66726;52.388;9.986;2023-08-06T06:18:44;15.50;99.90
77582;DHT22;66726;52.388;9.986;2023-08-06T06:21:16;15.50;99.90
77582;DHT22;66726;52.388;9.986;2023-08-06T06:23:48;15.50;99.90
77582;DHT22;66726;52.388;9.986;2023-08-06T06:26:22;15.50;99.90
77582;DHT22;66726;52.388;9.986;2023-08-06T06:28:53;15.60;99.90
77582;DHT22;66726;52.388;9.986;2023-08-06T06:31:25;15.60;99.90
77582;DHT22;66726;52.388;9.986;2023-08-06T06:33:57;15.60;99.90
77582;DHT22;66726;52.388;9.986;2023-08-06T06:36:29;15.60;99.90
77582;DHT22;66726;52.388;9.986;2023-08-06T06:39:01;15.60;99.90
77582;DHT22;66726;52.388;9.986;2023-08-06T06:41:34;15.60;99.90
77582;DHT22;66726;52.388;9.986;2023-08-06T06:44:07;15.70;99.90
77582;DHT22;66726;52.388;9.986;2023-08-06T06:46:39;15.60;99.90
77582;DHT22;66726;52.388;9.986;2023-08-06T06:49:11;15.60;99.90
77582;DHT22;66726;52.388;9.986;2023-08-06T06:51:43;15.60;99.90
77582;DHT22;66726;52.388;9.986;2023-08-06T06:54:15;15.60;99.90
77582;DHT22;66726;52.388;9.986;2023-08-06T06:56:48;15.70;99.90
77582;DHT22;66726;52.388;9.986;2023-08-06T06:59:20;15.70;99.90
77582;DHT22;66726;52.388;9.986;2023-08-06T07:01:51;15.70;99.90
77582;DHT22;66726;52.388;9.986;2023-08-06T07:04:24;15.80;99.90
77582;DHT22;66726;52.388;9.986;2023-08-06T07:06:56;15.80;99.90
77582;DHT22;66726;52.388;9.986;2023-08-06T07:09:28;15.80;99.90
77582;DHT22;66726;52.388;9.986;2023-08-06T07:12:01;15.90;99.90
77582;DHT22;66726;52.388;9.986;2023-08-06T07:14:38;15.90;99.90
77582;DHT22;66726;52.388;9.986;2023-08-06T07:17:10;15.90;99.90
77582;DHT22;66726;52.388;9.986;2023-08-06T07:19:42;15.90;99.90
77582;DHT22;66726;52.388;9.986;2023-08-06T07:22:14;15.90;99.90
77582;DHT22;66726;52.388;9.986;2023-08-06T07:24:46;16.00;99.90
77582;DHT22;66726;52.388;9.986;2023-08-06T07:27:19;16.00;99.90
77582;DHT22;66726;52.388;9.986;2023-08-06T07:29:51;16.00;99.90
77582;DHT22;66726;52.388;9.986;2023-08-06T07:32:23;16.00;99.90
77582;DHT22;66726;52.388;9.986;2023-08-06T07:34:54;16.10;99.90
77582;DHT22;66726;52.388;9.986;2023-08-06T07:37:29;16.10;99.90
77582;DHT22;66726;52.388;9.986;2023-08-06T07:40:00;16.10;99.90
77582;DHT22;66726;52.388;9.986;2023-08-06T07:42:33;16.20;99.90
77582;DHT22;66726;52.388;9.986;2023-08-06T07:45:07;16.30;99.90
77582;DHT22;66726;52.388;9.986;2023-08-06T07:47:41;16.40;99.90
77582;DHT22;66726;52.388;9.986;2023-08-06T07:50:13;16.40;99.90
77582;DHT22;66726;52.388;9.986;2023-08-06T07:52:45;16.50;99.90
77582;DHT22;66726;52.388;9.986;2023-08-06T07:55:17;16.50;99.90
77582;DHT22;66726;52.388;9.986;2023-08-06T07:57:51;16.60;99.90
77582;DHT22;66726;52.388;9.986;2023-08-06T08:00:23;16.60;99.90
77582;DHT22;66726;52.388;9.986;2023-08-06T08:02:55;16.70;99.90
77582;DHT22;66726;52.388;9.986;2023-08-06T08:05:27;16.70;99.90
77582;DHT22;66726;52.388;9.986;2023-08-06T08:07:59;16.80;99.90
77582;DHT22;66726;52.388;9.986;2023-08-06T08:10:30;16.90;99.90
77582;DHT22;66726;52.388;9.986;2023-08-06T08:13:04;16.90;99.90
77582;DHT22;66726;52.388;9.986;2023-08-06T08:15:36;17.00;99.90
77582;DHT22;66726;52.388;9.986;2023-08-06T08:18:08;17.00;99.90
77582;DHT22;66726;52.388;9.986;2023-08-06T08:20:41;17.00;99.90
77582;DHT22;66726;52.388;9.986;2023-08-06T08:23:13;17.10;99.90
77582;DHT22;66726;52.388;9.986;2023-08-06T08:25:45;17.20;99.90
77582;DHT22;66726;52.388;9.986;2023-08-06T08:28:18;17.10;99.90
77582;DHT22;66726;52.388;9.986;2023-08-06T08:30:50;17.20;99.90
77582;DHT22;66726;52.388;9.986;2023-08-06T08:33:22;17.30;99.90
77582;DHT22;66726;52.388;9.986;2023-08-06T08:35:54;17.30;99.90
77582;DHT22;66726;52.388;9.986;2023-08-06T08:38:26;17.40;99.90
77582;DHT22;66726;52.388;9.986;2023-08-06T08:40:57;17.50;99.90
77582;DHT22;66726;52.388;9.986;2023-08-06T08:43:31;17.60;99.90
77582;DHT22;66726;52.388;9.986;2023-08-06T08:46:05;17.60;99.90
77582;DHT22;66726;52.388;9.986;2023-08-06T08:48:43;17.60;99.90
77582;DHT22;66726;52.388;9.986;2023-08-06T08:51:19;17.70;99.90
77582;DHT22;66726;52.388;9.986;2023-08-06T08:53:54;17.80;99.90
77582;DHT22;66726;52.388;9.986;2023-08-06T08:56:26;17.80;99.90
77582;DHT22;66726;52.388;9.986;2023-08-06T08:59:00;17.80;99.90
77582;DHT22;66726;52.388;9.986;2023-08-06T09:01:32;17.90;99.90
77582;DHT22;66726;52.388;9.986;2023-08-06T09:04:04;17.90;99.90
77582;DHT22;66726;52.388;9.986;2023-08-06T09:06:40;18.00;99.90
77582;DHT22;66726;52.388;9.986;2023-08-06T09:09:17;18.00;99.90
77582;DHT22;66726;52.388;9.986;2023-08-06T09:11:58;18.10;99.90
77582;DHT22;66726;52.388;9.986;2023-08-06T09:14:33;18.20;99.90
77582;DHT22;66726;52.388;9.986;2023-08-06T09:17:06;18.30;99.90
77582;DHT22;66726;52.388;9.986;2023-08-06T09:19:43;18.30;99.90
77582;DHT22;66726;52.388;9.986;2023-08-06T09:22:17;18.40;99.90
77582;DHT22;66726;52.388;9.986;2023-08-06T09:24:49;18.40;99.90
77582;DHT22;66726;52.388;9.986;2023-08-06T09:27:20;18.50;99.90
77582;DHT22;66726;52.388;9.986;2023-08-06T09:29:55;18.60;99.90
77582;DHT22;66726;52.388;9.986;2023-08-06T09:32:27;18.60;99.90
77582;DHT22;66726;52.388;9.986;2023-08-06T09:35:17;18.70;99.90
77582;DHT22;66726;52.388;9.986;2023-08-06T09:37:49;18.70;99.90
77582;DHT22;66726;52.388;9.986;2023-08-06T09:40:28;18.80;99.90
77582;DHT22;66726;52.388;9.986;2023-08-06T09:43:01;18.90;99.90
77582;DHT22;66726;52.388;9.986;2023-08-06T09:45:37;19.00;99.90
77582;DHT22;66726;52.388;9.986;2023-08-06T09:48:10;19.10;99.90
77582;DHT22;66726;52.388;9.986;2023-08-06T09:50:42;19.10;99.90
77582;DHT22;66726;52.388;9.986;2023-08-06T09:53:16;19.20;99.90
77582;DHT22;66726;52.388;9.986;2023-08-06T09:55:49;19.30;99.90
77582;DHT22;66726;52.388;9.986;2023-08-06T09:58:22;19.40;99.90
77582;DHT22;66726;52.388;9.986;2023-08-06T10:00:58;19.50;99.90
77582;DHT22;66726;52.388;9.986;2023-08-06T10:03:32;19.40;99.90
77582;DHT22;66726;52.388;9.986;2023-08-06T10:06:06;19.40;99.90
77582;DHT22;66726;52.388;9.986;2023-08-06T10:08:38;19.40;99.90
77582;DHT22;66726;52.388;9.986;2023-08-06T10:11:11;19.50;99.90
77582;DHT22;66726;52.388;9.986;2023-08-06T10:13:44;19.50;99.90
77582;DHT22;66726;52.388;9.986;2023-08-06T10:16:19;19.50;99.90
77582;DHT22;66726;52.388;9.986;2023-08-06T10:18:52;19.80;99.90
77582;DHT22;66726;52.388;9.986;2023-08-06T10:21:25;19.90;99.90
77582;DHT22;66726;52.388;9.986;2023-08-06T10:23:59;19.90;99.90
77582;DHT22;66726;52.388;9.986;2023-08-06T10:26:32;20.00;99.90
77582;DHT22;66726;52.388;9.986;2023-08-06T10:29:03;20.10;99.90
77582;DHT22;66726;52.388;9.986;2023-08-06T10:32:06;20.20;99.90
77582;DHT22;66726;52.388;9.986;2023-08-06T10:34:54;20.20;99.90
77582;DHT22;66726;52.388;9.986;2023-08-06T10:37:25;20.50;99.90
77582;DHT22;66726;52.388;9.986;2023-08-06T10:40:09;20.70;99.90
77582;DHT22;66726;52.388;9.986;2023-08-06T10:42:42;20.80;99.90
77582;DHT22;66726;52.388;9.986;2023-08-06T10:45:17;20.90;99.90
77582;DHT22;66726;52.388;9.986;2023-08-06T10:47:50;21.00;99.90
77582;DHT22;66726;52.388;9.986;2023-08-06T10:50:22;21.00;99.90
77582;DHT22;66726;52.388;9.986;2023-08-06T10:52:55;21.00;99.90
77582;DHT22;66726;52.388;9.986;2023-08-06T10:55:28;21.10;99.90
77582;DHT22;66726;52.388;9.986;2023-08-06T10:58:01;21.10;99.90
77582;DHT22;66726;52.388;9.986;2023-08-06T11:00:33;21.20;99.90
77582;DHT22;66726;52.388;9.986;2023-08-06T11:03:06;21.30;99.90
77582;DHT22;66726;52.388;9.986;2023-08-06T11:05:38;21.40;99.90
77582;DHT22;66726;52.388;9.986;2023-08-06T11:08:10;21.40;99.70
77582;DHT22;66726;52.388;9.986;2023-08-06T11:10:42;21.60;99.90
77582;DHT22;66726;52.388;9.986;2023-08-06T11:13:30;21.70;99.90
77582;DHT22;66726;52.388;9.986;2023-08-06T11:16:02;21.80;99.90
77582;DHT22;66726;52.388;9.986;2023-08-06T11:18:36;21.90;99.90
77582;DHT22;66726;52.388;9.986;2023-08-06T11:21:08;22.00;99.90
77582;DHT22;66726;52.388;9.986;2023-08-06T11:23:41;22.20;99.90
77582;DHT22;66726;52.388;9.986;2023-08-06T11:26:13;22.30;98.80
77582;DHT22;66726;52.388;9.986;2023-08-06T11:28:51;22.20;99.80
77582;DHT22;66726;52.388;9.986;2023-08-06T11:31:24;22.20;99.90
77582;DHT22;66726;52.388;9.986;2023-08-06T11:33:57;22.20;97.70
77582;DHT22;66726;52.388;9.986;2023-08-06T11:36:33;22.30;99.00
77582;DHT22;66726;52.388;9.986;2023-08-06T11:39:06;22.40;98.20
77582;DHT22;66726;52.388;9.986;2023-08-06T11:41:38;22.30;97.60
77582;DHT22;66726;52.388;9.986;2023-08-06T11:44:12;22.20;99.00
77582;DHT22;66726;52.388;9.986;2023-08-06T11:46:55;22.10;98.60
77582;DHT22;66726;52.388;9.986;2023-08-06T11:49:45;22.10;97.90
77582;DHT22;66726;52.388;9.986;2023-08-06T11:52:21;22.10;98.70
77582;DHT22;66726;52.388;9.986;2023-08-06T11:55:06;22.00;99.00
77582;DHT22;66726;52.388;9.986;2023-08-06T11:57:43;22.00;98.00
77582;DHT22;66726;52.388;9.986;2023-08-06T12:00:15;22.10;97.70
77582;DHT22;66726;52.388;9.986;2023-08-06T12:02:50;22.10;98.60
77582;DHT22;66726;52.388;9.986;2023-08-06T12:05:28;22.10;95.90
77582;DHT22;66726;52.388;9.986;2023-08-06T12:08:03;22.30;96.60
77582;DHT22;66726;52.388;9.986;2023-08-06T12:10:35;22.30;97.40
77582;DHT22;66726;52.388;9.986;2023-08-06T12:13:07;22.40;97.60
77582;DHT22;66726;52.388;9.986;2023-08-06T12:15:39;22.40;97.80
77582;DHT22;66726;52.388;9.986;2023-08-06T12:18:11;22.40;96.40
77582;DHT22;66726;52.388;9.986;2023-08-06T12:20:44;22.30;94.80
77582;DHT22;66726;52.388;9.986;2023-08-06T12:23:17;22.30;95.60
77582;DHT22;66726;52.388;9.986;2023-08-06T12:25:49;22.20;96.20
77582;DHT22;66726;52.388;9.986;2023-08-06T12:28:21;22.30;97.10
77582;DHT22;66726;52.388;9.986;2023-08-06T12:30:54;22.50;97.90
77582;DHT22;66726;52.388;9.986;2023-08-06T12:33:26;22.60;98.00
77582;DHT22;66726;52.388;9.986;2023-08-06T12:35:59;22.80;95.70
77582;DHT22;66726;52.388;9.986;2023-08-06T12:38:31;22.90;93.90
77582;DHT22;66726;52.388;9.986;2023-08-06T12:41:03;22.90;96.60
77582;DHT22;66726;52.388;9.986;2023-08-06T12:43:35;23.10;95.60
77582;DHT22;66726;52.388;9.986;2023-08-06T12:46:07;23.00;94.90
77582;DHT22;66726;52.388;9.986;2023-08-06T12:48:40;23.20;92.90
77582;DHT22;66726;52.388;9.986;2023-08-06T12:51:13;23.20;93.10
77582;DHT22;66726;52.388;9.986;2023-08-06T12:53:45;23.30;92.10
77582;DHT22;66726;52.388;9.986;2023-08-06T12:56:17;23.20;93.00
77582;DHT22;66726;52.388;9.986;2023-08-06T12:58:49;23.40;91.80
77582;DHT22;66726;52.388;9.986;2023-08-06T13:01:21;23.60;93.20
77582;DHT22;66726;52.388;9.986;2023-08-06T13:03:53;23.60;92.80
77582;DHT22;66726;52.388;9.986;2023-08-06T13:06:46;23.60;93.20
77582;DHT22;66726;52.388;9.986;2023-08-06T13:09:18;23.70;91.50
77582;DHT22;66726;52.388;9.986;2023-08-06T13:11:51;23.50;90.70
77582;DHT22;66726;52.388;9.986;2023-08-06T13:14:23;23.60;93.50
77582;DHT22;66726;52.388;9.986;2023-08-06T13:16:56;23.60;91.40
77582;DHT22;66726;52.388;9.986;2023-08-06T13:19:29;24.00;94.50
77582;DHT22;66726;52.388;9.986;2023-08-06T13:22:04;24.20;92.90
77582;DHT22;66726;52.388;9.986;2023-08-06T13:24:37;24.40;92.90
77582;DHT22;66726;52.388;9.986;2023-08-06T13:27:08;24.40;91.10
77582;DHT22;66726;52.388;9.986;2023-08-06T13:29:40;24.50;90.20
77582;DHT22;66726;52.388;9.986;2023-08-06T13:32:12;24.50;88.70
77582;DHT22;66726;52.388;9.986;2023-08-06T13:34:44;24.40;89.50
77582;DHT22;66726;52.388;9.986;2023-08-06T13:37:17;24.40;90.40
77582;DHT22;66726;52.388;9.986;2023-08-06T13:39:49;24.30;91.00
77582;DHT22;66726;52.388;9.986;2023-08-06T13:42:24;24.40;91.80
77582;DHT22;66726;52.388;9.986;2023-08-06T13:44:56;24.50;90.30
77582;DHT22;66726;52.388;9.986;2023-08-06T13:47:32;24.60;90.40
77582;DHT22;66726;52.388;9.986;2023-08-06T13:50:04;24.40;90.10
77582;DHT22;66726;52.388;9.986;2023-08-06T13:52:38;24.10;91.30
77582;DHT22;66726;52.388;9.986;2023-08-06T13:55:10;24.10;91.40
77582;DHT22;66726;52.388;9.986;2023-08-06T13:57:42;23.90;91.00
77582;DHT22;66726;52.388;9.986;2023-08-06T14:00:14;23.80;91.80
77582;DHT22;66726;52.388;9.986;2023-08-06T14:02:46;23.80;91.50
77582;DHT22;66726;52.388;9.986;2023-08-06T14:05:18;23.80;92.00
77582;DHT22;66726;52.388;9.986;2023-08-06T14:07:52;23.90;92.10
77582;DHT22;66726;52.388;9.986;2023-08-06T14:10:24;24.20;91.20
77582;DHT22;66726;52.388;9.986;2023-08-06T14:12:56;24.30;91.40
77582;DHT22;66726;52.388;9.986;2023-08-06T14:15:38;24.30;90.60
77582;DHT22;66726;52.388;9.986;2023-08-06T14:18:10;23.90;90.10
77582;DHT22;66726;52.388;9.986;2023-08-06T14:20:42;23.90;91.00
77582;DHT22;66726;52.388;9.986;2023-08-06T14:23:15;23.80;90.10
77582;DHT22;66726;52.388;9.986;2023-08-06T14:25:47;23.70;90.30
77582;DHT22;66726;52.388;9.986;2023-08-06T14:28:19;23.70;90.60
77582;DHT22;66726;52.388;9.986;2023-08-06T14:30:51;23.60;90.60
77582;DHT22;66726;52.388;9.986;2023-08-06T14:33:26;23.50;90.70
77582;DHT22;66726;52.388;9.986;2023-08-06T14:35:58;23.60;91.00
77582;DHT22;66726;52.388;9.986;2023-08-06T14:38:32;23.50;90.00
77582;DHT22;66726;52.388;9.986;2023-08-06T14:41:21;23.50;89.20
77582;DHT22;66726;52.388;9.986;2023-08-06T14:43:53;23.40;90.20
77582;DHT22;66726;52.388;9.986;2023-08-06T14:46:25;23.50;90.30
77582;DHT22;66726;52.388;9.986;2023-08-06T14:48:57;23.50;90.30
77582;DHT22;66726;52.388;9.986;2023-08-06T14:51:29;23.60;90.10
77582;DHT22;66726;52.388;9.986;2023-08-06T14:54:04;23.70;90.40
77582;DHT22;66726;52.388;9.986;2023-08-06T14:56:36;23.60;91.40
77582;DHT22;66726;52.388;9.986;2023-08-06T14:59:08;23.60;91.20
77582;DHT22;66726;52.388;9.986;2023-08-06T15:01:40;23.60;90.90
77582;DHT22;66726;52.388;9.986;2023-08-06T15:04:12;23.60;91.50
77582;DHT22;66726;52.388;9.986;2023-08-06T15:06:44;23.50;91.20
77582;DHT22;66726;52.388;9.986;2023-08-06T15:09:17;23.20;92.20
77582;DHT22;66726;52.388;9.986;2023-08-06T15:11:50;23.10;92.60
77582;DHT22;66726;52.388;9.986;2023-08-06T15:14:22;23.00;92.80
77582;DHT22;66726;52.388;9.986;2023-08-06T15:16:54;23.10;93.90
77582;DHT22;66726;52.388;9.986;2023-08-06T15:19:26;23.10;92.90
77582;DHT22;66726;52.388;9.986;2023-08-06T15:21:58;23.00;92.90
77582;DHT22;66726;52.388;9.986;2023-08-06T15:24:31;22.90;93.20
77582;DHT22;66726;52.388;9.986;2023-08-06T15:27:05;22.90;92.60
77582;DHT22;66726;52.388;9.986;2023-08-06T15:29:37;22.60;92.80
77582;DHT22;66726;52.388;9.986;2023-08-06T15:32:11;22.60;92.90
77582;DHT22;66726;52.388;9.986;2023-08-06T15:34:43;22.50;93.40
77582;DHT22;66726;52.388;9.986;2023-08-06T15:37:16;22.50;94.00
77582;DHT22;66726;52.388;9.986;2023-08-06T15:39:49;22.40;93.40
77582;DHT22;66726;52.388;9.986;2023-08-06T15:42:21;22.40;93.50
77582;DHT22;66726;52.388;9.986;2023-08-06T15:44:53;22.50;93.90
77582;DHT22;66726;52.388;9.986;2023-08-06T15:47:25;22.60;94.10
77582;DHT22;66726;52.388;9.986;2023-08-06T15:49:57;22.60;94.20
77582;DHT22;66726;52.388;9.986;2023-08-06T15:52:29;22.60;94.00
77582;DHT22;66726;52.388;9.986;2023-08-06T15:55:02;22.60;94.10
77582;DHT22;66726;52.388;9.986;2023-08-06T15:57:34;22.60;94.00
77582;DHT22;66726;52.388;9.986;2023-08-06T16:00:09;22.60;94.60
77582;DHT22;66726;52.388;9.986;2023-08-06T16:02:42;22.50;94.70
77582;DHT22;66726;52.388;9.986;2023-08-06T16:05:14;22.50;94.20
77582;DHT22;66726;52.388;9.986;2023-08-06T16:07:48;22.50;94.20